LFKC/CLY METAR and TAF weather

Enter ICAO airport designator
Station Type Date Time Source
LFKC METAR 2019/12/08 01:00 UTC NOAA

LFKC 080100Z AUTO 19010KT CAVOK 14/06 Q1019


Station Type Date Time Source
LFKC Decoded METAR 2019/12/08 01:00 UTC NOAA

Calvi, France (LFKC) 42-32N 008-48E 58M
Dec 07, 2019 - 08:00 PM EST / 2019.12.08 0100 UTC
Wind: from the S (190 degrees) at 12 MPH (10 KT):0
Visibility: greater than 7 mile(s):0
Temperature: 57 F (14 C)
Dew Point: 42 F (6 C)
Relative Humidity: 58%
Pressure (altimeter): 30.09 in. Hg (1019 hPa)
ob: LFKC 080100Z AUTO 19010KT CAVOK 14/06 Q1019
cycle: 1

Station Type Date Time Source
LFKC TAF 2019/12/07 19:06 UTC NOAA

TAF LFKC 071900Z 0719/0815 CNL

Example: see airport list